sensor_id;sensor_type;location;lat;lon;timestamp;pressure;altitude;pressure_sealevel;temperature;humidity
56420;BME280;42323;52.170;7.538;2023-02-16T00:01:23;101979.91;;;4.94;79.42
56420;BME280;42323;52.170;7.538;2023-02-16T00:03:53;101980.22;;;4.89;79.19
56420;BME280;42323;52.170;7.538;2023-02-16T00:06:20;101965.78;;;4.85;79.76
56420;BME280;42323;52.170;7.538;2023-02-16T00:08:54;101957.38;;;4.82;80.01
56420;BME280;42323;52.170;7.538;2023-02-16T00:11:39;101967.44;;;4.86;79.50
56420;BME280;42323;52.170;7.538;2023-02-16T00:14:28;101961.72;;;4.81;79.90
56420;BME280;42323;52.170;7.538;2023-02-16T00:16:58;101948.75;;;4.68;80.27
56420;BME280;42323;52.170;7.538;2023-02-16T00:19:37;101945.47;;;4.66;80.43
56420;BME280;42323;52.170;7.538;2023-02-16T00:22:05;101952.81;;;4.60;80.22
56420;BME280;42323;52.170;7.538;2023-02-16T00:24:35;101957.19;;;4.59;80.57
56420;BME280;42323;52.170;7.538;2023-02-16T00:27:13;101954.97;;;4.53;81.60
56420;BME280;42323;52.170;7.538;2023-02-16T00:29:42;101953.75;;;4.46;81.27
56420;BME280;42323;52.170;7.538;2023-02-16T00:32:11;101950.31;;;4.33;81.73
56420;BME280;42323;52.170;7.538;2023-02-16T00:34:47;101944.91;;;4.23;81.64
56420;BME280;42323;52.170;7.538;2023-02-16T00:37:23;101944.59;;;4.15;82.08
56420;BME280;42323;52.170;7.538;2023-02-16T00:39:55;101957.25;;;4.07;82.19
56420;BME280;42323;52.170;7.538;2023-02-16T00:42:28;101960.09;;;3.89;83.14
56420;BME280;42323;52.170;7.538;2023-02-16T00:45:17;101954.97;;;3.75;83.52
56420;BME280;42323;52.170;7.538;2023-02-16T00:47:47;101965.53;;;3.72;84.20
56420;BME280;42323;52.170;7.538;2023-02-16T00:50:28;101956.03;;;3.58;83.90
56420;BME280;42323;52.170;7.538;2023-02-16T00:52:59;101959.84;;;3.52;83.90
56420;BME280;42323;52.170;7.538;2023-02-16T00:55:32;101954.84;;;3.49;85.26
56420;BME280;42323;52.170;7.538;2023-02-16T01:01:25;101964.63;;;3.46;85.00
56420;BME280;42323;52.170;7.538;2023-02-16T01:04:01;101961.22;;;3.31;85.75
56420;BME280;42323;52.170;7.538;2023-02-16T01:06:29;101966.66;;;3.26;86.20
56420;BME280;42323;52.170;7.538;2023-02-16T01:09:17;101971.59;;;3.17;86.38
56420;BME280;42323;52.170;7.538;2023-02-16T01:12:23;101956.09;;;3.03;86.49
56420;BME280;42323;52.170;7.538;2023-02-16T01:14:56;101964.75;;;3.01;86.89
56420;BME280;42323;52.170;7.538;2023-02-16T01:17:29;101956.63;;;2.93;86.82
56420;BME280;42323;52.170;7.538;2023-02-16T01:19:55;101958.88;;;2.85;87.14
56420;BME280;42323;52.170;7.538;2023-02-16T01:22:27;101957.56;;;2.78;87.09
56420;BME280;42323;52.170;7.538;2023-02-16T01:25:07;101952.94;;;2.69;87.77
56420;BME280;42323;52.170;7.538;2023-02-16T01:27:40;101950.16;;;2.58;87.97
56420;BME280;42323;52.170;7.538;2023-02-16T01:30:16;101949.34;;;2.57;88.51
56420;BME280;42323;52.170;7.538;2023-02-16T01:33:07;101958.75;;;2.58;88.99
56420;BME280;42323;52.170;7.538;2023-02-16T01:35:39;101962.38;;;2.56;89.02
56420;BME280;42323;52.170;7.538;2023-02-16T01:38:35;101953.56;;;2.44;88.77
56420;BME280;42323;52.170;7.538;2023-02-16T01:44:20;101947.28;;;2.34;89.32
56420;BME280;42323;52.170;7.538;2023-02-16T01:46:56;101949.94;;;2.32;89.80
56420;BME280;42323;52.170;7.538;2023-02-16T01:49:34;101957.53;;;2.35;89.69
56420;BME280;42323;52.170;7.538;2023-02-16T01:55:05;101955.22;;;2.31;90.03
56420;BME280;42323;52.170;7.538;2023-02-16T02:04:18;101935.91;;;2.22;90.71
56420;BME280;42323;52.170;7.538;2023-02-16T02:07:06;101935.06;;;2.21;90.55
56420;BME280;42323;52.170;7.538;2023-02-16T02:10:01;101944.22;;;2.27;91.17
56420;BME280;42323;52.170;7.538;2023-02-16T02:13:03;101949.47;;;2.25;90.71
56420;BME280;42323;52.170;7.538;2023-02-16T02:15:34;101936.81;;;2.21;90.74
56420;BME280;42323;52.170;7.538;2023-02-16T02:18:08;101939.75;;;2.15;90.80
56420;BME280;42323;52.170;7.538;2023-02-16T02:27:31;101927.06;;;1.96;91.40
56420;BME280;42323;52.170;7.538;2023-02-16T02:36:25;101912.75;;;1.90;92.40
56420;BME280;42323;52.170;7.538;2023-02-16T02:42:50;101916.16;;;1.91;92.21
56420;BME280;42323;52.170;7.538;2023-02-16T02:45:44;101887.13;;;1.71;92.62
56420;BME280;42323;52.170;7.538;2023-02-16T02:48:32;101912.81;;;1.89;91.87
56420;BME280;42323;52.170;7.538;2023-02-16T02:51:16;101908.84;;;1.83;92.44
56420;BME280;42323;52.170;7.538;2023-02-16T02:54:03;101905.59;;;1.80;92.48
56420;BME280;42323;52.170;7.538;2023-02-16T02:57:12;101905.88;;;1.75;92.33
56420;BME280;42323;52.170;7.538;2023-02-16T03:00:26;101895.78;;;1.70;92.33
56420;BME280;42323;52.170;7.538;2023-02-16T03:03:25;101904.28;;;1.72;93.01
56420;BME280;42323;52.170;7.538;2023-02-16T03:06:17;101876.91;;;1.54;92.84
56420;BME280;42323;52.170;7.538;2023-02-16T03:09:11;101881.91;;;1.57;92.29
56420;BME280;42323;52.170;7.538;2023-02-16T03:11:46;101836.59;;;1.21;92.99
56420;BME280;42323;52.170;7.538;2023-02-16T03:14:40;101881.09;;;1.57;93.27
56420;BME280;42323;52.170;7.538;2023-02-16T03:17:23;101860.84;;;1.49;92.96
56420;BME280;42323;52.170;7.538;2023-02-16T03:20:11;101871.28;;;1.47;92.84
56420;BME280;42323;52.170;7.538;2023-02-16T03:23:07;101880.31;;;1.55;92.41
56420;BME280;42323;52.170;7.538;2023-02-16T03:25:58;101873.34;;;1.41;92.64
56420;BME280;42323;52.170;7.538;2023-02-16T03:28:49;101883.84;;;1.38;92.72
56420;BME280;42323;52.170;7.538;2023-02-16T03:31:39;101864.72;;;1.26;93.09
56420;BME280;42323;52.170;7.538;2023-02-16T03:34:10;101890.84;;;1.36;93.80
56420;BME280;42323;52.170;7.538;2023-02-16T03:36:42;101897.78;;;1.35;93.56
56420;BME280;42323;52.170;7.538;2023-02-16T03:39:17;101876.22;;;1.20;93.29
56420;BME280;42323;52.170;7.538;2023-02-16T03:41:48;101904.75;;;1.33;93.67
56420;BME280;42323;52.170;7.538;2023-02-16T03:44:19;101867.22;;;1.12;93.57
56420;BME280;42323;52.170;7.538;2023-02-16T03:46:46;101856.81;;;0.97;93.36
56420;BME280;42323;52.170;7.538;2023-02-16T03:49:18;101898.84;;;1.15;93.55
56420;BME280;42323;52.170;7.538;2023-02-16T03:51:45;101908.88;;;1.21;94.01
56420;BME280;42323;52.170;7.538;2023-02-16T03:54:13;101896.94;;;1.19;93.43
56420;BME280;42323;52.170;7.538;2023-02-16T03:56:43;101873.56;;;1.06;94.61
56420;BME280;42323;52.170;7.538;2023-02-16T03:59:10;101884.97;;;1.18;94.95
56420;BME280;42323;52.170;7.538;2023-02-16T04:01:47;101878.88;;;1.19;94.65
56420;BME280;42323;52.170;7.538;2023-02-16T04:04:14;101867.97;;;1.14;94.70
56420;BME280;42323;52.170;7.538;2023-02-16T04:06:43;101884.63;;;1.24;94.24
56420;BME280;42323;52.170;7.538;2023-02-16T04:09:18;101857.72;;;1.12;94.61
56420;BME280;42323;52.170;7.538;2023-02-16T04:11:47;101844.91;;;0.95;94.42
56420;BME280;42323;52.170;7.538;2023-02-16T04:14:41;101865.72;;;1.08;94.24
56420;BME280;42323;52.170;7.538;2023-02-16T04:17:10;101883.38;;;1.15;94.21
56420;BME280;42323;52.170;7.538;2023-02-16T04:19:39;101878.03;;;1.03;94.21
56420;BME280;42323;52.170;7.538;2023-02-16T04:22:22;101877.72;;;1.09;94.51
56420;BME280;42323;52.170;7.538;2023-02-16T04:24:51;101882.06;;;1.08;94.65
56420;BME280;42323;52.170;7.538;2023-02-16T04:27:22;101879.91;;;1.00;94.53
56420;BME280;42323;52.170;7.538;2023-02-16T04:29:51;101890.13;;;1.02;94.41
56420;BME280;42323;52.170;7.538;2023-02-16T04:32:18;101891.13;;;0.99;94.29
56420;BME280;42323;52.170;7.538;2023-02-16T04:34:48;101894.59;;;0.98;94.83
56420;BME280;42323;52.170;7.538;2023-02-16T04:37:20;101878.47;;;0.79;94.11
56420;BME280;42323;52.170;7.538;2023-02-16T04:39:50;101884.34;;;0.81;94.65
56420;BME280;42323;52.170;7.538;2023-02-16T04:42:19;101882.44;;;0.85;95.01
56420;BME280;42323;52.170;7.538;2023-02-16T04:45:01;101859.81;;;0.74;95.34
56420;BME280;42323;52.170;7.538;2023-02-16T04:47:30;101874.63;;;0.86;95.67
56420;BME280;42323;52.170;7.538;2023-02-16T04:49:57;101883.56;;;0.96;96.19
56420;BME280;42323;52.170;7.538;2023-02-16T04:52:23;101880.22;;;0.94;95.57
56420;BME280;42323;52.170;7.538;2023-02-16T04:54:53;101893.78;;;0.98;95.49
56420;BME280;42323;52.170;7.538;2023-02-16T04:57:26;101899.03;;;0.96;95.06
56420;BME280;42323;52.170;7.538;2023-02-16T04:59:53;101882.44;;;0.85;95.66
56420;BME280;42323;52.170;7.538;2023-02-16T05:02:19;101905.19;;;0.94;95.50
56420;BME280;42323;52.170;7.538;2023-02-16T05:04:46;101892.63;;;0.88;95.88
56420;BME280;42323;52.170;7.538;2023-02-16T05:07:16;101890.88;;;0.88;95.76
56420;BME280;42323;52.170;7.538;2023-02-16T05:09:48;101890.88;;;0.88;95.94
56420;BME280;42323;52.170;7.538;2023-02-16T05:12:17;101873.31;;;0.79;96.51
56420;BME280;42323;52.170;7.538;2023-02-16T05:15:04;101886.28;;;0.93;96.36
56420;BME280;42323;52.170;7.538;2023-02-16T05:17:36;101835.84;;;0.72;96.36
56420;BME280;42323;52.170;7.538;2023-02-16T05:20:07;101870.31;;;1.03;96.80
56420;BME280;42323;52.170;7.538;2023-02-16T05:22:33;101872.13;;;1.16;96.78
56420;BME280;42323;52.170;7.538;2023-02-16T05:25:07;101857.41;;;1.18;96.90
56420;BME280;42323;52.170;7.538;2023-02-16T05:27:36;101870.38;;;1.33;97.41
56420;BME280;42323;52.170;7.538;2023-02-16T05:30:03;101851.72;;;1.28;96.83
56420;BME280;42323;52.170;7.538;2023-02-16T05:32:33;101858.38;;;1.32;96.84
56420;BME280;42323;52.170;7.538;2023-02-16T05:35:06;101859.22;;;1.32;96.52
56420;BME280;42323;52.170;7.538;2023-02-16T05:37:37;101858.28;;;1.33;96.59
56420;BME280;42323;52.170;7.538;2023-02-16T05:40:11;101864.94;;;1.37;96.41
56420;BME280;42323;52.170;7.538;2023-02-16T05:42:38;101867.47;;;1.39;96.48
56420;BME280;42323;52.170;7.538;2023-02-16T05:45:05;101878.34;;;1.44;96.01
56420;BME280;42323;52.170;7.538;2023-02-16T05:47:31;101868.19;;;1.41;95.81
56420;BME280;42323;52.170;7.538;2023-02-16T05:50:03;101860.63;;;1.38;95.98
56420;BME280;42323;52.170;7.538;2023-02-16T05:52:32;101888.25;;;1.52;96.29
56420;BME280;42323;52.170;7.538;2023-02-16T05:55:02;101887.50;;;1.49;96.19
56420;BME280;42323;52.170;7.538;2023-02-16T05:57:31;101878.09;;;1.48;95.71
56420;BME280;42323;52.170;7.538;2023-02-16T06:00:09;101897.50;;;1.56;96.18
56420;BME280;42323;52.170;7.538;2023-02-16T06:02:50;101897.16;;;1.62;95.72
56420;BME280;42323;52.170;7.538;2023-02-16T06:05:17;101857.53;;;1.47;96.12
56420;BME280;42323;52.170;7.538;2023-02-16T06:07:45;101882.13;;;1.68;95.92
56420;BME280;42323;52.170;7.538;2023-02-16T06:10:15;101884.28;;;1.76;95.54
56420;BME280;42323;52.170;7.538;2023-02-16T06:12:52;101873.22;;;1.74;95.31
56420;BME280;42323;52.170;7.538;2023-02-16T06:15:19;101878.78;;;1.82;95.92
56420;BME280;42323;52.170;7.538;2023-02-16T06:17:46;101889.97;;;1.97;95.29
56420;BME280;42323;52.170;7.538;2023-02-16T06:20:16;101874.84;;;2.05;95.55
56420;BME280;42323;52.170;7.538;2023-02-16T06:22:45;101883.81;;;2.14;95.46
56420;BME280;42323;52.170;7.538;2023-02-16T06:25:11;101890.28;;;2.21;95.21
56420;BME280;42323;52.170;7.538;2023-02-16T06:27:43;101887.97;;;2.31;95.30
56420;BME280;42323;52.170;7.538;2023-02-16T06:30:17;101883.25;;;2.37;94.41
56420;BME280;42323;52.170;7.538;2023-02-16T06:32:59;101878.66;;;2.42;95.03
56420;BME280;42323;52.170;7.538;2023-02-16T06:35:39;101871.63;;;2.44;93.65
56420;BME280;42323;52.170;7.538;2023-02-16T06:38:28;101849.41;;;2.42;94.31
56420;BME280;42323;52.170;7.538;2023-02-16T06:40:58;101863.41;;;2.66;93.29
56420;BME280;42323;52.170;7.538;2023-02-16T06:43:24;101865.34;;;2.77;93.28
56420;BME280;42323;52.170;7.538;2023-02-16T06:45:56;101838.91;;;2.72;92.72
56420;BME280;42323;52.170;7.538;2023-02-16T06:48:23;101840.66;;;2.86;92.63
56420;BME280;42323;52.170;7.538;2023-02-16T06:50:50;101844.41;;;2.94;91.82
56420;BME280;42323;52.170;7.538;2023-02-16T06:53:16;101846.06;;;2.95;91.55
56420;BME280;42323;52.170;7.538;2023-02-16T06:55:43;101859.75;;;2.97;91.79
56420;BME280;42323;52.170;7.538;2023-02-16T06:58:10;101873.84;;;3.06;91.86
56420;BME280;42323;52.170;7.538;2023-02-16T07:00:37;101879.69;;;3.10;91.08
56420;BME280;42323;52.170;7.538;2023-02-16T07:03:14;101860.84;;;3.08;91.37
56420;BME280;42323;52.170;7.538;2023-02-16T07:08:57;101883.44;;;3.18;90.64
56420;BME280;42323;52.170;7.538;2023-02-16T07:11:24;101875.25;;;3.12;90.98
56420;BME280;42323;52.170;7.538;2023-02-16T07:13:57;101877.06;;;3.24;90.68
56420;BME280;42323;52.170;7.538;2023-02-16T07:16:32;101885.16;;;3.32;90.62
56420;BME280;42323;52.170;7.538;2023-02-16T07:19:16;101875.44;;;3.36;90.23
56420;BME280;42323;52.170;7.538;2023-02-16T07:21:50;101880.31;;;3.40;89.80
56420;BME280;42323;52.170;7.538;2023-02-16T07:24:44;101877.66;;;3.42;89.67
56420;BME280;42323;52.170;7.538;2023-02-16T07:27:16;101881.31;;;3.52;89.51
56420;BME280;42323;52.170;7.538;2023-02-16T07:29:46;101888.88;;;3.55;89.47
56420;BME280;42323;52.170;7.538;2023-02-16T07:32:24;101880.28;;;3.55;89.02
56420;BME280;42323;52.170;7.538;2023-02-16T07:34:56;101883.22;;;3.63;89.54
56420;BME280;42323;52.170;7.538;2023-02-16T07:37:30;101887.97;;;3.69;88.98
56420;BME280;42323;52.170;7.538;2023-02-16T07:40:29;101893.50;;;3.77;88.68
56420;BME280;42323;52.170;7.538;2023-02-16T07:43:08;101893.31;;;3.80;88.79
56420;BME280;42323;52.170;7.538;2023-02-16T07:45:36;101899.00;;;3.85;88.05
56420;BME280;42323;52.170;7.538;2023-02-16T07:48:16;101899.84;;;3.86;87.94
56420;BME280;42323;52.170;7.538;2023-02-16T07:50:57;101905.84;;;3.86;88.25
56420;BME280;42323;52.170;7.538;2023-02-16T07:53:43;101917.78;;;3.89;87.73
56420;BME280;42323;52.170;7.538;2023-02-16T07:56:20;101905.56;;;3.91;87.35
56420;BME280;42323;52.170;7.538;2023-02-16T07:58:54;101878.59;;;3.93;87.27
56420;BME280;42323;52.170;7.538;2023-02-16T08:01:33;101876.41;;;4.00;87.39
56420;BME280;42323;52.170;7.538;2023-02-16T08:04:07;101875.72;;;4.11;87.16
56420;BME280;42323;52.170;7.538;2023-02-16T08:07:00;101876.94;;;4.18;87.27
56420;BME280;42323;52.170;7.538;2023-02-16T08:09:33;101867.06;;;4.23;87.37
56420;BME280;42323;52.170;7.538;2023-02-16T08:12:07;101882.75;;;4.34;87.07
56420;BME280;42323;52.170;7.538;2023-02-16T08:14:39;101885.47;;;4.45;86.82
56420;BME280;42323;52.170;7.538;2023-02-16T08:17:17;101889.91;;;4.56;86.77
56420;BME280;42323;52.170;7.538;2023-02-16T08:19:48;101882.22;;;4.55;86.81
56420;BME280;42323;52.170;7.538;2023-02-16T08:22:18;101900.09;;;4.59;86.52
56420;BME280;42323;52.170;7.538;2023-02-16T08:24:45;101897.88;;;4.66;86.07
56420;BME280;42323;52.170;7.538;2023-02-16T08:27:20;101892.38;;;4.70;86.13
56420;BME280;42323;52.170;7.538;2023-02-16T08:29:49;101881.56;;;4.76;85.65
56420;BME280;42323;52.170;7.538;2023-02-16T08:32:21;101889.41;;;4.88;85.25
56420;BME280;42323;52.170;7.538;2023-02-16T08:34:55;101887.22;;;4.94;85.19
56420;BME280;42323;52.170;7.538;2023-02-16T08:37:30;101875.81;;;4.97;84.65
56420;BME280;42323;52.170;7.538;2023-02-16T08:40:01;101897.06;;;5.15;84.74
56420;BME280;42323;52.170;7.538;2023-02-16T08:42:28;101894.13;;;5.19;84.26
56420;BME280;42323;52.170;7.538;2023-02-16T08:45:02;101879.84;;;5.25;83.86
56420;BME280;42323;52.170;7.538;2023-02-16T08:47:36;101891.84;;;5.39;83.37
56420;BME280;42323;52.170;7.538;2023-02-16T08:50:06;101900.19;;;5.55;82.78
56420;BME280;42323;52.170;7.538;2023-02-16T08:52:33;101888.50;;;5.61;82.12
56420;BME280;42323;52.170;7.538;2023-02-16T08:55:13;101891.44;;;5.80;81.21
56420;BME280;42323;52.170;7.538;2023-02-16T08:57:51;101895.94;;;5.89;80.48
56420;BME280;42323;52.170;7.538;2023-02-16T09:00:30;101884.59;;;5.90;79.87
56420;BME280;42323;52.170;7.538;2023-02-16T09:03:02;101875.13;;;5.89;79.61
56420;BME280;42323;52.170;7.538;2023-02-16T09:05:32;101874.59;;;5.97;80.15
56420;BME280;42323;52.170;7.538;2023-02-16T09:08:03;101878.72;;;5.99;79.65
56420;BME280;42323;52.170;7.538;2023-02-16T09:10:29;101892.38;;;6.14;79.92
56420;BME280;42323;52.170;7.538;2023-02-16T09:12:56;101891.31;;;6.17;79.61
56420;BME280;42323;52.170;7.538;2023-02-16T09:15:26;101899.59;;;6.33;78.71
56420;BME280;42323;52.170;7.538;2023-02-16T09:18:00;101906.63;;;6.44;78.44
56420;BME280;42323;52.170;7.538;2023-02-16T09:20:41;101912.06;;;6.52;78.04
56420;BME280;42323;52.170;7.538;2023-02-16T09:23:11;101910.53;;;6.61;77.78
56420;BME280;42323;52.170;7.538;2023-02-16T09:25:41;101897.50;;;6.72;77.30
56420;BME280;42323;52.170;7.538;2023-02-16T09:28:13;101896.16;;;6.89;76.21
56420;BME280;42323;52.170;7.538;2023-02-16T09:30:42;101901.94;;;7.03;76.01
56420;BME280;42323;52.170;7.538;2023-02-16T09:33:18;101894.09;;;7.15;75.40
56420;BME280;42323;52.170;7.538;2023-02-16T09:35:54;101903.06;;;7.33;74.31
56420;BME280;42323;52.170;7.538;2023-02-16T09:38:29;101910.13;;;7.42;74.27
56420;BME280;42323;52.170;7.538;2023-02-16T09:41:27;101901.59;;;7.51;74.28
56420;BME280;42323;52.170;7.538;2023-02-16T09:44:05;101910.53;;;7.70;73.87
56420;BME280;42323;52.170;7.538;2023-02-16T09:46:41;101903.38;;;7.72;72.99
56420;BME280;42323;52.170;7.538;2023-02-16T09:51:55;101902.25;;;7.86;71.93
56420;BME280;42323;52.170;7.538;2023-02-16T10:06:01;101903.44;;;8.23;70.80
56420;BME280;42323;52.170;7.538;2023-02-16T10:14:24;101901.13;;;8.20;70.82
56420;BME280;42323;52.170;7.538;2023-02-16T10:17:05;101895.91;;;8.20;69.58
56420;BME280;42323;52.170;7.538;2023-02-16T10:22:50;101886.28;;;8.21;69.79
56420;BME280;42323;52.170;7.538;2023-02-16T10:25:45;101880.50;;;8.17;70.03
56420;BME280;42323;52.170;7.538;2023-02-16T10:28:41;101892.38;;;8.10;70.25
56420;BME280;42323;52.170;7.538;2023-02-16T10:31:39;101896.97;;;8.18;70.36
56420;BME280;42323;52.170;7.538;2023-02-16T10:41:06;101889.56;;;8.23;71.22
56420;BME280;42323;52.170;7.538;2023-02-16T10:46:18;101896.38;;;8.35;70.19
56420;BME280;42323;52.170;7.538;2023-02-16T10:49:16;101903.84;;;8.40;70.40
56420;BME280;42323;52.170;7.538;2023-02-16T10:52:00;101900.72;;;8.46;70.36
56420;BME280;42323;52.170;7.538;2023-02-16T10:54:54;101910.69;;;8.62;68.99
56420;BME280;42323;52.170;7.538;2023-02-16T10:57:53;101907.94;;;8.63;69.03
56420;BME280;42323;52.170;7.538;2023-02-16T11:00:53;101924.56;;;8.62;69.08
56420;BME280;42323;52.170;7.538;2023-02-16T11:03:29;101916.69;;;8.52;70.39
56420;BME280;42323;52.170;7.538;2023-02-16T11:06:42;101903.50;;;8.54;69.77
56420;BME280;42323;52.170;7.538;2023-02-16T11:09:35;101910.81;;;8.60;69.42
56420;BME280;42323;52.170;7.538;2023-02-16T11:17:51;101910.47;;;8.74;68.86
56420;BME280;42323;52.170;7.538;2023-02-16T11:20:28;101900.94;;;8.64;70.09
56420;BME280;42323;52.170;7.538;2023-02-16T11:23:32;101906.78;;;8.77;69.35
56420;BME280;42323;52.170;7.538;2023-02-16T11:28:36;101886.88;;;8.95;69.61
56420;BME280;42323;52.170;7.538;2023-02-16T11:33:37;101890.00;;;8.89;69.97
56420;BME280;42323;52.170;7.538;2023-02-16T11:36:41;101894.56;;;8.97;69.84
56420;BME280;42323;52.170;7.538;2023-02-16T11:39:20;101887.00;;;8.94;70.03
56420;BME280;42323;52.170;7.538;2023-02-16T11:41:56;101884.50;;;8.92;70.19
56420;BME280;42323;52.170;7.538;2023-02-16T11:44:41;101886.88;;;8.95;70.80
56420;BME280;42323;52.170;7.538;2023-02-16T11:47:24;101878.72;;;8.89;70.56
56420;BME280;42323;52.170;7.538;2023-02-16T11:50:20;101872.97;;;8.85;71.05
56420;BME280;42323;52.170;7.538;2023-02-16T11:52:50;101877.22;;;8.96;70.95
56420;BME280;42323;52.170;7.538;2023-02-16T11:55:30;101863.91;;;8.99;71.29
56420;BME280;42323;52.170;7.538;2023-02-16T11:58:23;101868.97;;;9.00;70.94
56420;BME280;42323;52.170;7.538;2023-02-16T12:06:44;101866.09;;;9.03;72.94
56420;BME280;42323;52.170;7.538;2023-02-16T12:12:05;101847.19;;;8.80;74.72
56420;BME280;42323;52.170;7.538;2023-02-16T12:19:47;101846.69;;;8.87;76.71
56420;BME280;42323;52.170;7.538;2023-02-16T12:22:29;101838.56;;;8.90;77.49
56420;BME280;42323;52.170;7.538;2023-02-16T12:31:32;101843.19;;;8.36;79.90
56420;BME280;42323;52.170;7.538;2023-02-16T12:34:20;101843.16;;;8.26;80.16
56420;BME280;42323;52.170;7.538;2023-02-16T12:36:56;101844.44;;;8.11;81.98
56420;BME280;42323;52.170;7.538;2023-02-16T12:39:36;101846.50;;;8.08;81.14
56420;BME280;42323;52.170;7.538;2023-02-16T12:45:17;101844.44;;;8.11;82.59
56420;BME280;42323;52.170;7.538;2023-02-16T12:47:53;101837.72;;;8.09;82.84
56420;BME280;42323;52.170;7.538;2023-02-16T12:50:23;101856.16;;;8.17;83.08
56420;BME280;42323;52.170;7.538;2023-02-16T12:53:05;101862.22;;;8.17;81.95
56420;BME280;42323;52.170;7.538;2023-02-16T12:55:45;101876.38;;;8.24;82.07
56420;BME280;42323;52.170;7.538;2023-02-16T12:58:33;101871.44;;;8.21;82.05
56420;BME280;42323;52.170;7.538;2023-02-16T13:04:00;101862.72;;;8.11;81.56
56420;BME280;42323;52.170;7.538;2023-02-16T13:06:35;101867.75;;;8.03;82.45
56420;BME280;42323;52.170;7.538;2023-02-16T13:09:17;101867.88;;;8.01;82.78
56420;BME280;42323;52.170;7.538;2023-02-16T13:11:54;101861.16;;;7.99;82.69
56420;BME280;42323;52.170;7.538;2023-02-16T13:14:26;101846.00;;;7.93;82.40
56420;BME280;42323;52.170;7.538;2023-02-16T13:16:56;101834.06;;;7.90;82.36
56420;BME280;42323;52.170;7.538;2023-02-16T13:19:25;101825.25;;;7.91;82.65
56420;BME280;42323;52.170;7.538;2023-02-16T13:36:12;101804.00;;;7.75;83.25
56420;BME280;42323;52.170;7.538;2023-02-16T13:44:16;101776.53;;;7.71;83.85
56420;BME280;42323;52.170;7.538;2023-02-16T13:46:51;101771.06;;;7.74;83.93
56420;BME280;42323;52.170;7.538;2023-02-16T13:51:58;101773.84;;;7.82;82.83
56420;BME280;42323;52.170;7.538;2023-02-16T13:56:56;101762.31;;;7.85;82.70
56420;BME280;42323;52.170;7.538;2023-02-16T14:01:50;101759.88;;;7.93;83.49
56420;BME280;42323;52.170;7.538;2023-02-16T14:09:48;101742.09;;;8.08;82.32
56420;BME280;42323;52.170;7.538;2023-02-16T14:12:15;101760.25;;;8.19;81.79
56420;BME280;42323;52.170;7.538;2023-02-16T14:19:51;101747.94;;;8.30;81.01
56420;BME280;42323;52.170;7.538;2023-02-16T14:28:00;101740.16;;;8.50;79.90
56420;BME280;42323;52.170;7.538;2023-02-16T14:30:34;101747.19;;;8.49;79.87
56420;BME280;42323;52.170;7.538;2023-02-16T14:38:35;101737.44;;;8.51;80.25
56420;BME280;42323;52.170;7.538;2023-02-16T14:41:05;101741.28;;;8.67;80.68
56420;BME280;42323;52.170;7.538;2023-02-16T14:46:56;101730.03;;;8.86;79.20
56420;BME280;42323;52.170;7.538;2023-02-16T14:56:05;101713.25;;;8.78;79.69
56420;BME280;42323;52.170;7.538;2023-02-16T14:58:53;101716.25;;;9.13;78.64
56420;BME280;42323;52.170;7.538;2023-02-16T15:01:22;101707.31;;;9.72;77.76
56420;BME280;42323;52.170;7.538;2023-02-16T15:03:53;101701.00;;;10.83;73.64
56420;BME280;42323;52.170;7.538;2023-02-16T15:08:52;101693.03;;;11.97;69.05
56420;BME280;42323;52.170;7.538;2023-02-16T15:11:29;101699.69;;;11.57;68.89
56420;BME280;42323;52.170;7.538;2023-02-16T15:14:05;101691.94;;;11.21;69.74
56420;BME280;42323;52.170;7.538;2023-02-16T15:16:33;101690.38;;;11.28;69.95
56420;BME280;42323;52.170;7.538;2023-02-16T15:19:06;101695.63;;;11.28;69.81
56420;BME280;42323;52.170;7.538;2023-02-16T15:21:33;101700.44;;;11.15;70.83
56420;BME280;42323;52.170;7.538;2023-02-16T15:24:00;101701.00;;;10.83;71.48
56420;BME280;42323;52.170;7.538;2023-02-16T15:26:30;101704.75;;;10.45;72.52
56420;BME280;42323;52.170;7.538;2023-02-16T15:29:00;101701.38;;;10.07;74.63
56420;BME280;42323;52.170;7.538;2023-02-16T15:31:31;101704.88;;;9.88;74.95
56420;BME280;42323;52.170;7.538;2023-02-16T15:34:01;101712.44;;;9.64;76.49
56420;BME280;42323;52.170;7.538;2023-02-16T15:36:33;101719.94;;;9.39;77.24
56420;BME280;42323;52.170;7.538;2023-02-16T15:42:25;101710.63;;;9.08;78.63
56420;BME280;42323;52.170;7.538;2023-02-16T15:44:53;101708.16;;;8.96;79.28
56420;BME280;42323;52.170;7.538;2023-02-16T15:47:24;101695.53;;;8.82;79.53
56420;BME280;42323;52.170;7.538;2023-02-16T15:49:52;101699.78;;;8.83;80.47
56420;BME280;42323;52.170;7.538;2023-02-16T15:52:33;101702.81;;;8.78;80.36
56420;BME280;42323;52.170;7.538;2023-02-16T15:55:05;101700.19;;;8.78;80.37
56420;BME280;42323;52.170;7.538;2023-02-16T15:57:36;101696.19;;;8.65;81.09
56420;BME280;42323;52.170;7.538;2023-02-16T16:00:20;101704.88;;;8.65;80.79
56420;BME280;42323;52.170;7.538;2023-02-16T16:02:50;101703.63;;;8.60;81.60
56420;BME280;42323;52.170;7.538;2023-02-16T16:05:30;101697.69;;;8.58;81.32
56420;BME280;42323;52.170;7.538;2023-02-16T16:07:59;101694.94;;;8.49;82.33
56420;BME280;42323;52.170;7.538;2023-02-16T16:10:36;101683.41;;;8.42;82.09
56420;BME280;42323;52.170;7.538;2023-02-16T16:13:28;101690.28;;;8.43;81.97
56420;BME280;42323;52.170;7.538;2023-02-16T16:15:55;101684.31;;;8.32;82.42
56420;BME280;42323;52.170;7.538;2023-02-16T16:18:35;101679.78;;;8.34;82.77
56420;BME280;42323;52.170;7.538;2023-02-16T16:21:10;101669.31;;;8.24;82.21
56420;BME280;42323;52.170;7.538;2023-02-16T16:23:38;101668.38;;;8.25;82.32
56420;BME280;42323;52.170;7.538;2023-02-16T16:26:19;101673.16;;;8.20;82.98
56420;BME280;42323;52.170;7.538;2023-02-16T16:28:45;101671.75;;;8.16;82.65
56420;BME280;42323;52.170;7.538;2023-02-16T16:31:14;101668.63;;;8.12;82.54
56420;BME280;42323;52.170;7.538;2023-02-16T16:36:53;101669.97;;;8.07;83.33
56420;BME280;42323;52.170;7.538;2023-02-16T16:39:27;101671.31;;;8.01;82.81